sensor_id;sensor_type;location;lat;lon;timestamp;temperature;humidity
71672;DHT22;67659;45.554;11.812;2023-02-28T00:00:19;6.00;55.30
71672;DHT22;67659;45.554;11.812;2023-02-28T00:02:45;6.00;55.70
71672;DHT22;67659;45.554;11.812;2023-02-28T00:05:13;5.80;55.30
71672;DHT22;67659;45.554;11.812;2023-02-28T00:07:39;6.00;56.30
71672;DHT22;67659;45.554;11.812;2023-02-28T00:10:06;5.90;55.60
71672;DHT22;67659;45.554;11.812;2023-02-28T00:12:34;5.90;55.60
71672;DHT22;67659;45.554;11.812;2023-02-28T00:15:00;5.80;55.60
71672;DHT22;67659;45.554;11.812;2023-02-28T00:17:26;6.00;56.10
71672;DHT22;67659;45.554;11.812;2023-02-28T00:19:52;5.80;55.70
71672;DHT22;67659;45.554;11.812;2023-02-28T00:22:19;5.90;55.70
71672;DHT22;67659;45.554;11.812;2023-02-28T00:24:45;5.70;56.30
71672;DHT22;67659;45.554;11.812;2023-02-28T00:27:12;5.60;56.60
71672;DHT22;67659;45.554;11.812;2023-02-28T00:29:38;5.50;56.50
71672;DHT22;67659;45.554;11.812;2023-02-28T00:32:05;5.60;56.40
71672;DHT22;67659;45.554;11.812;2023-02-28T00:34:31;5.50;56.60
71672;DHT22;67659;45.554;11.812;2023-02-28T00:37:04;5.50;56.50
71672;DHT22;67659;45.554;11.812;2023-02-28T00:39:30;5.60;56.50
71672;DHT22;67659;45.554;11.812;2023-02-28T00:41:56;5.50;56.60
71672;DHT22;67659;45.554;11.812;2023-02-28T00:44:22;5.50;56.60
71672;DHT22;67659;45.554;11.812;2023-02-28T00:46:47;5.50;56.70
71672;DHT22;67659;45.554;11.812;2023-02-28T00:49:13;5.60;56.90
71672;DHT22;67659;45.554;11.812;2023-02-28T00:51:39;5.40;56.70
71672;DHT22;67659;45.554;11.812;2023-02-28T00:54:05;5.40;56.80
71672;DHT22;67659;45.554;11.812;2023-02-28T00:56:30;5.40;57.40
71672;DHT22;67659;45.554;11.812;2023-02-28T00:58:56;5.30;57.80
71672;DHT22;67659;45.554;11.812;2023-02-28T01:01:22;5.20;58.60
71672;DHT22;67659;45.554;11.812;2023-02-28T01:03:48;5.30;59.00
71672;DHT22;67659;45.554;11.812;2023-02-28T01:06:14;5.30;58.60
71672;DHT22;67659;45.554;11.812;2023-02-28T01:08:39;5.20;58.60
71672;DHT22;67659;45.554;11.812;2023-02-28T01:11:10;5.30;58.60
71672;DHT22;67659;45.554;11.812;2023-02-28T01:13:37;5.20;59.00
71672;DHT22;67659;45.554;11.812;2023-02-28T01:16:03;5.40;58.80
71672;DHT22;67659;45.554;11.812;2023-02-28T01:18:29;5.30;58.60
71672;DHT22;67659;45.554;11.812;2023-02-28T01:20:56;5.30;59.50
71672;DHT22;67659;45.554;11.812;2023-02-28T01:23:22;5.20;60.00
71672;DHT22;67659;45.554;11.812;2023-02-28T01:25:52;5.10;58.80
71672;DHT22;67659;45.554;11.812;2023-02-28T01:28:18;5.10;59.60
71672;DHT22;67659;45.554;11.812;2023-02-28T01:30:50;5.10;60.40
71672;DHT22;67659;45.554;11.812;2023-02-28T01:33:16;4.90;60.50
71672;DHT22;67659;45.554;11.812;2023-02-28T01:35:42;4.90;60.20
71672;DHT22;67659;45.554;11.812;2023-02-28T01:38:08;4.90;60.10
71672;DHT22;67659;45.554;11.812;2023-02-28T01:40:34;5.00;59.60
71672;DHT22;67659;45.554;11.812;2023-02-28T01:43:00;4.90;60.00
71672;DHT22;67659;45.554;11.812;2023-02-28T01:45:30;5.00;59.70
71672;DHT22;67659;45.554;11.812;2023-02-28T01:48:04;5.10;59.80
71672;DHT22;67659;45.554;11.812;2023-02-28T01:50:34;5.10;60.40
71672;DHT22;67659;45.554;11.812;2023-02-28T01:53:06;5.10;59.80
71672;DHT22;67659;45.554;11.812;2023-02-28T01:55:32;5.20;60.10
71672;DHT22;67659;45.554;11.812;2023-02-28T01:58:01;5.20;59.40
71672;DHT22;67659;45.554;11.812;2023-02-28T02:00:28;5.30;59.10
71672;DHT22;67659;45.554;11.812;2023-02-28T02:03:08;5.30;59.70
71672;DHT22;67659;45.554;11.812;2023-02-28T02:05:36;5.30;59.20
71672;DHT22;67659;45.554;11.812;2023-02-28T02:08:05;5.30;58.70
71672;DHT22;67659;45.554;11.812;2023-02-28T02:10:46;5.60;58.10
71672;DHT22;67659;45.554;11.812;2023-02-28T02:13:36;5.70;58.00
71672;DHT22;67659;45.554;11.812;2023-02-28T02:18:58;5.50;57.30
71672;DHT22;67659;45.554;11.812;2023-02-28T02:26:57;5.70;58.50
71672;DHT22;67659;45.554;11.812;2023-02-28T02:35:29;5.80;58.50
71672;DHT22;67659;45.554;11.812;2023-02-28T02:38:08;5.90;60.00
71672;DHT22;67659;45.554;11.812;2023-02-28T02:40:43;5.90;58.50
71672;DHT22;67659;45.554;11.812;2023-02-28T02:43:22;5.70;58.30
71672;DHT22;67659;45.554;11.812;2023-02-28T02:45:56;6.00;58.30
71672;DHT22;67659;45.554;11.812;2023-02-28T02:48:27;5.70;60.40
71672;DHT22;67659;45.554;11.812;2023-02-28T02:50:59;5.80;59.70
71672;DHT22;67659;45.554;11.812;2023-02-28T02:53:33;5.70;58.80
71672;DHT22;67659;45.554;11.812;2023-02-28T02:56:02;5.80;58.70
71672;DHT22;67659;45.554;11.812;2023-02-28T02:58:33;5.70;58.40
71672;DHT22;67659;45.554;11.812;2023-02-28T03:01:02;5.80;58.20
71672;DHT22;67659;45.554;11.812;2023-02-28T03:03:30;6.00;58.10
71672;DHT22;67659;45.554;11.812;2023-02-28T03:06:00;5.70;58.30
71672;DHT22;67659;45.554;11.812;2023-02-28T03:08:28;6.10;57.70
71672;DHT22;67659;45.554;11.812;2023-02-28T03:11:00;6.00;57.10
71672;DHT22;67659;45.554;11.812;2023-02-28T03:16:33;6.20;56.30
71672;DHT22;67659;45.554;11.812;2023-02-28T03:24:50;6.10;55.90
71672;DHT22;67659;45.554;11.812;2023-02-28T03:30:25;6.10;55.80
71672;DHT22;67659;45.554;11.812;2023-02-28T03:33:03;6.10;55.40
71672;DHT22;67659;45.554;11.812;2023-02-28T03:35:37;6.00;55.80
71672;DHT22;67659;45.554;11.812;2023-02-28T03:38:38;6.00;55.20
71672;DHT22;67659;45.554;11.812;2023-02-28T03:41:23;6.10;55.20
71672;DHT22;67659;45.554;11.812;2023-02-28T03:43:55;6.00;55.50
71672;DHT22;67659;45.554;11.812;2023-02-28T03:46:24;5.80;56.00
71672;DHT22;67659;45.554;11.812;2023-02-28T03:49:11;5.70;56.10
71672;DHT22;67659;45.554;11.812;2023-02-28T03:51:40;5.80;56.10
71672;DHT22;67659;45.554;11.812;2023-02-28T03:54:12;5.80;56.10
71672;DHT22;67659;45.554;11.812;2023-02-28T03:57:33;5.70;56.50
71672;DHT22;67659;45.554;11.812;2023-02-28T03:59:37;5.80;56.20
71672;DHT22;67659;45.554;11.812;2023-02-28T04:02:05;5.80;56.10
71672;DHT22;67659;45.554;11.812;2023-02-28T04:04:31;5.80;56.20
71672;DHT22;67659;45.554;11.812;2023-02-28T04:07:06;5.80;56.00
71672;DHT22;67659;45.554;11.812;2023-02-28T04:09:32;5.80;56.10
71672;DHT22;67659;45.554;11.812;2023-02-28T04:11:58;5.80;56.00
71672;DHT22;67659;45.554;11.812;2023-02-28T04:14:24;5.80;56.30
71672;DHT22;67659;45.554;11.812;2023-02-28T04:16:50;5.80;56.30
71672;DHT22;67659;45.554;11.812;2023-02-28T04:19:16;5.80;56.00
71672;DHT22;67659;45.554;11.812;2023-02-28T04:21:47;5.90;56.20
71672;DHT22;67659;45.554;11.812;2023-02-28T04:24:16;5.90;56.50
71672;DHT22;67659;45.554;11.812;2023-02-28T04:26:45;5.80;56.80
71672;DHT22;67659;45.554;11.812;2023-02-28T04:29:12;5.80;56.50
71672;DHT22;67659;45.554;11.812;2023-02-28T04:31:39;5.90;56.60
71672;DHT22;67659;45.554;11.812;2023-02-28T04:34:04;5.70;56.30
71672;DHT22;67659;45.554;11.812;2023-02-28T04:36:30;5.80;56.20
71672;DHT22;67659;45.554;11.812;2023-02-28T04:38:56;5.70;56.70
71672;DHT22;67659;45.554;11.812;2023-02-28T04:41:22;5.90;56.80
71672;DHT22;67659;45.554;11.812;2023-02-28T04:43:48;5.90;56.70
71672;DHT22;67659;45.554;11.812;2023-02-28T04:46:15;5.80;56.80
71672;DHT22;67659;45.554;11.812;2023-02-28T04:48:41;5.80;57.00
71672;DHT22;67659;45.554;11.812;2023-02-28T04:51:09;5.70;56.90
71672;DHT22;67659;45.554;11.812;2023-02-28T04:53:37;5.90;57.00
71672;DHT22;67659;45.554;11.812;2023-02-28T04:56:03;5.80;57.10
71672;DHT22;67659;45.554;11.812;2023-02-28T04:58:29;5.70;56.70
71672;DHT22;67659;45.554;11.812;2023-02-28T05:01:02;5.50;57.30
71672;DHT22;67659;45.554;11.812;2023-02-28T05:03:28;5.80;57.20
71672;DHT22;67659;45.554;11.812;2023-02-28T05:05:54;5.60;57.10
71672;DHT22;67659;45.554;11.812;2023-02-28T05:08:20;5.60;59.20
71672;DHT22;67659;45.554;11.812;2023-02-28T05:10:45;5.50;59.10
71672;DHT22;67659;45.554;11.812;2023-02-28T05:13:12;5.50;59.30
71672;DHT22;67659;45.554;11.812;2023-02-28T05:15:38;5.40;59.20
71672;DHT22;67659;45.554;11.812;2023-02-28T05:18:04;5.40;59.30
71672;DHT22;67659;45.554;11.812;2023-02-28T05:20:29;5.30;59.50
71672;DHT22;67659;45.554;11.812;2023-02-28T05:22:57;5.00;60.20
71672;DHT22;67659;45.554;11.812;2023-02-28T05:25:24;5.20;60.70
71672;DHT22;67659;45.554;11.812;2023-02-28T05:27:50;5.10;60.80
71672;DHT22;67659;45.554;11.812;2023-02-28T05:30:16;5.20;61.10
71672;DHT22;67659;45.554;11.812;2023-02-28T05:32:42;5.00;60.20
71672;DHT22;67659;45.554;11.812;2023-02-28T05:35:12;4.80;60.80
71672;DHT22;67659;45.554;11.812;2023-02-28T05:37:38;5.10;60.90
71672;DHT22;67659;45.554;11.812;2023-02-28T05:40:05;4.80;60.80
71672;DHT22;67659;45.554;11.812;2023-02-28T05:42:33;5.00;60.70
71672;DHT22;67659;45.554;11.812;2023-02-28T05:44:59;5.00;61.10
71672;DHT22;67659;45.554;11.812;2023-02-28T05:47:25;5.00;61.30
71672;DHT22;67659;45.554;11.812;2023-02-28T05:49:50;4.80;60.90
71672;DHT22;67659;45.554;11.812;2023-02-28T05:52:17;4.90;61.30
71672;DHT22;67659;45.554;11.812;2023-02-28T05:54:43;5.10;61.20
71672;DHT22;67659;45.554;11.812;2023-02-28T05:57:08;5.10;61.10
71672;DHT22;67659;45.554;11.812;2023-02-28T05:59:34;5.20;61.60
71672;DHT22;67659;45.554;11.812;2023-02-28T06:02:00;5.10;61.50
71672;DHT22;67659;45.554;11.812;2023-02-28T06:04:26;5.30;61.00
71672;DHT22;67659;45.554;11.812;2023-02-28T06:06:51;5.30;60.40
71672;DHT22;67659;45.554;11.812;2023-02-28T06:09:18;5.20;60.60
71672;DHT22;67659;45.554;11.812;2023-02-28T06:11:44;5.50;60.20
71672;DHT22;67659;45.554;11.812;2023-02-28T06:14:18;5.50;59.60
71672;DHT22;67659;45.554;11.812;2023-02-28T06:16:45;5.70;59.60
71672;DHT22;67659;45.554;11.812;2023-02-28T06:19:11;5.70;59.80
71672;DHT22;67659;45.554;11.812;2023-02-28T06:21:37;6.00;59.30
71672;DHT22;67659;45.554;11.812;2023-02-28T06:24:03;6.40;58.70
71672;DHT22;67659;45.554;11.812;2023-02-28T06:26:29;6.80;57.50
71672;DHT22;67659;45.554;11.812;2023-02-28T06:28:56;7.30;56.40
71672;DHT22;67659;45.554;11.812;2023-02-28T06:31:22;7.90;55.20
71672;DHT22;67659;45.554;11.812;2023-02-28T06:33:49;8.10;54.30
71672;DHT22;67659;45.554;11.812;2023-02-28T06:36:16;9.00;52.60
71672;DHT22;67659;45.554;11.812;2023-02-28T06:38:43;10.00;51.00
71672;DHT22;67659;45.554;11.812;2023-02-28T06:41:10;11.20;49.60
71672;DHT22;67659;45.554;11.812;2023-02-28T06:43:39;12.50;47.00
71672;DHT22;67659;45.554;11.812;2023-02-28T06:46:08;13.00;43.30
71672;DHT22;67659;45.554;11.812;2023-02-28T06:48:35;13.00;43.10
71672;DHT22;67659;45.554;11.812;2023-02-28T06:51:07;13.30;42.40
71672;DHT22;67659;45.554;11.812;2023-02-28T06:53:33;13.80;41.70
71672;DHT22;67659;45.554;11.812;2023-02-28T06:55:59;14.20;41.20
71672;DHT22;67659;45.554;11.812;2023-02-28T06:58:25;14.80;39.50
71672;DHT22;67659;45.554;11.812;2023-02-28T07:00:52;15.50;38.10
71672;DHT22;67659;45.554;11.812;2023-02-28T07:03:18;16.10;36.30
71672;DHT22;67659;45.554;11.812;2023-02-28T07:05:44;16.70;35.50
71672;DHT22;67659;45.554;11.812;2023-02-28T07:08:11;17.30;35.20
71672;DHT22;67659;45.554;11.812;2023-02-28T07:10:40;17.70;34.00
71672;DHT22;67659;45.554;11.812;2023-02-28T07:13:08;18.40;33.10
71672;DHT22;67659;45.554;11.812;2023-02-28T07:15:35;18.50;31.00
71672;DHT22;67659;45.554;11.812;2023-02-28T07:18:01;18.80;32.10
71672;DHT22;67659;45.554;11.812;2023-02-28T07:20:27;19.00;30.50
71672;DHT22;67659;45.554;11.812;2023-02-28T07:22:53;19.40;30.40
71672;DHT22;67659;45.554;11.812;2023-02-28T07:25:23;19.60;29.90
71672;DHT22;67659;45.554;11.812;2023-02-28T07:27:50;19.80;29.20
71672;DHT22;67659;45.554;11.812;2023-02-28T07:30:16;20.00;28.80
71672;DHT22;67659;45.554;11.812;2023-02-28T07:32:42;20.30;28.20
71672;DHT22;67659;45.554;11.812;2023-02-28T07:35:08;20.70;27.00
71672;DHT22;67659;45.554;11.812;2023-02-28T07:37:34;20.60;28.10
71672;DHT22;67659;45.554;11.812;2023-02-28T07:40:07;20.80;28.40
71672;DHT22;67659;45.554;11.812;2023-02-28T07:42:34;21.20;25.30
71672;DHT22;67659;45.554;11.812;2023-02-28T07:45:01;20.70;27.40
71672;DHT22;67659;45.554;11.812;2023-02-28T07:47:29;21.30;24.50
71672;DHT22;67659;45.554;11.812;2023-02-28T07:49:55;21.10;24.80
71672;DHT22;67659;45.554;11.812;2023-02-28T07:52:21;21.40;24.70
71672;DHT22;67659;45.554;11.812;2023-02-28T07:54:50;21.20;24.50
71672;DHT22;67659;45.554;11.812;2023-02-28T07:57:15;21.50;24.20
71672;DHT22;67659;45.554;11.812;2023-02-28T07:59:42;21.80;25.10
71672;DHT22;67659;45.554;11.812;2023-02-28T08:02:17;22.40;24.00
71672;DHT22;67659;45.554;11.812;2023-02-28T08:04:44;22.60;23.10
71672;DHT22;67659;45.554;11.812;2023-02-28T08:07:12;23.00;22.50
71672;DHT22;67659;45.554;11.812;2023-02-28T08:09:39;22.80;21.70
71672;DHT22;67659;45.554;11.812;2023-02-28T08:12:07;22.90;21.70
71672;DHT22;67659;45.554;11.812;2023-02-28T08:14:33;23.20;21.50
71672;DHT22;67659;45.554;11.812;2023-02-28T08:16:59;23.10;21.50
71672;DHT22;67659;45.554;11.812;2023-02-28T08:19:26;23.50;21.20
71672;DHT22;67659;45.554;11.812;2023-02-28T08:21:52;23.50;20.70
71672;DHT22;67659;45.554;11.812;2023-02-28T08:24:18;23.60;20.80
71672;DHT22;67659;45.554;11.812;2023-02-28T08:26:43;23.50;21.20
71672;DHT22;67659;45.554;11.812;2023-02-28T08:29:09;23.70;19.70
71672;DHT22;67659;45.554;11.812;2023-02-28T08:31:35;23.60;20.40
71672;DHT22;67659;45.554;11.812;2023-02-28T08:34:09;23.20;21.70
71672;DHT22;67659;45.554;11.812;2023-02-28T08:36:36;23.10;21.10
71672;DHT22;67659;45.554;11.812;2023-02-28T08:39:02;23.20;21.40
71672;DHT22;67659;45.554;11.812;2023-02-28T08:41:28;23.10;22.30
71672;DHT22;67659;45.554;11.812;2023-02-28T08:43:54;23.40;21.50
71672;DHT22;67659;45.554;11.812;2023-02-28T08:46:21;22.90;20.90
71672;DHT22;67659;45.554;11.812;2023-02-28T08:48:46;22.50;22.30
71672;DHT22;67659;45.554;11.812;2023-02-28T08:51:15;22.60;22.40
71672;DHT22;67659;45.554;11.812;2023-02-28T08:53:44;22.60;21.90
71672;DHT22;67659;45.554;11.812;2023-02-28T08:56:12;22.30;23.10
71672;DHT22;67659;45.554;11.812;2023-02-28T08:58:39;22.80;22.30
71672;DHT22;67659;45.554;11.812;2023-02-28T09:01:28;22.90;22.50
71672;DHT22;67659;45.554;11.812;2023-02-28T09:03:55;23.40;21.40
71672;DHT22;67659;45.554;11.812;2023-02-28T09:06:24;23.10;22.00
71672;DHT22;67659;45.554;11.812;2023-02-28T09:08:50;23.30;20.10
71672;DHT22;67659;45.554;11.812;2023-02-28T09:11:17;22.80;22.20
71672;DHT22;67659;45.554;11.812;2023-02-28T09:13:44;22.50;22.10
71672;DHT22;67659;45.554;11.812;2023-02-28T09:16:12;22.50;23.40
71672;DHT22;67659;45.554;11.812;2023-02-28T09:18:40;23.20;22.10
71672;DHT22;67659;45.554;11.812;2023-02-28T09:21:07;23.60;21.30
71672;DHT22;67659;45.554;11.812;2023-02-28T09:23:34;23.50;20.70
71672;DHT22;67659;45.554;11.812;2023-02-28T09:26:00;24.30;20.10
71672;DHT22;67659;45.554;11.812;2023-02-28T09:28:26;24.70;18.90
71672;DHT22;67659;45.554;11.812;2023-02-28T09:30:54;23.70;19.10
71672;DHT22;67659;45.554;11.812;2023-02-28T09:33:22;24.00;19.10
71672;DHT22;67659;45.554;11.812;2023-02-28T09:36:00;22.00;21.60
71672;DHT22;67659;45.554;11.812;2023-02-28T09:38:26;23.10;19.30
71672;DHT22;67659;45.554;11.812;2023-02-28T09:41:00;21.40;20.20
71672;DHT22;67659;45.554;11.812;2023-02-28T09:43:29;20.20;22.70
71672;DHT22;67659;45.554;11.812;2023-02-28T09:46:25;21.80;22.10
71672;DHT22;67659;45.554;11.812;2023-02-28T09:48:53;23.10;19.50
71672;DHT22;67659;45.554;11.812;2023-02-28T09:54:05;24.40;17.90
71672;DHT22;67659;45.554;11.812;2023-02-28T09:56:40;24.90;17.50
71672;DHT22;67659;45.554;11.812;2023-02-28T10:01:45;26.00;17.30
71672;DHT22;67659;45.554;11.812;2023-02-28T10:10:04;20.10;22.00
71672;DHT22;67659;45.554;11.812;2023-02-28T10:12:33;21.30;20.40
71672;DHT22;67659;45.554;11.812;2023-02-28T10:14:59;22.10;20.90
71672;DHT22;67659;45.554;11.812;2023-02-28T10:17:38;23.30;19.10
71672;DHT22;67659;45.554;11.812;2023-02-28T10:20:11;23.90;18.60
71672;DHT22;67659;45.554;11.812;2023-02-28T10:22:53;23.40;17.50
71672;DHT22;67659;45.554;11.812;2023-02-28T10:25:25;23.10;19.30
71672;DHT22;67659;45.554;11.812;2023-02-28T10:28:00;22.60;19.30
71672;DHT22;67659;45.554;11.812;2023-02-28T10:30:27;23.70;19.40
71672;DHT22;67659;45.554;11.812;2023-02-28T10:32:53;24.30;18.00
71672;DHT22;67659;45.554;11.812;2023-02-28T10:35:25;24.30;17.00
71672;DHT22;67659;45.554;11.812;2023-02-28T10:37:55;25.10;17.80
71672;DHT22;67659;45.554;11.812;2023-02-28T10:45:40;26.60;16.00
71672;DHT22;67659;45.554;11.812;2023-02-28T11:01:46;25.90;16.90
71672;DHT22;67659;45.554;11.812;2023-02-28T11:06:43;26.40;16.20
71672;DHT22;67659;45.554;11.812;2023-02-28T11:11:58;27.30;14.70
71672;DHT22;67659;45.554;11.812;2023-02-28T11:14:26;27.80;14.70
71672;DHT22;67659;45.554;11.812;2023-02-28T11:16:53;28.70;14.70
71672;DHT22;67659;45.554;11.812;2023-02-28T11:19:25;28.60;13.20
71672;DHT22;67659;45.554;11.812;2023-02-28T11:22:00;26.60;13.70
71672;DHT22;67659;45.554;11.812;2023-02-28T11:26:53;25.70;16.40
71672;DHT22;67659;45.554;11.812;2023-02-28T11:29:23;26.50;15.50
71672;DHT22;67659;45.554;11.812;2023-02-28T11:34:29;27.20;14.90
71672;DHT22;67659;45.554;11.812;2023-02-28T11:36:56;26.90;14.40
71672;DHT22;67659;45.554;11.812;2023-02-28T11:39:24;27.00;14.50
71672;DHT22;67659;45.554;11.812;2023-02-28T11:50:39;26.20;15.00
71672;DHT22;67659;45.554;11.812;2023-02-28T11:56:16;23.30;17.30
71672;DHT22;67659;45.554;11.812;2023-02-28T12:07:08;21.80;19.30
71672;DHT22;67659;45.554;11.812;2023-02-28T12:21:02;23.40;18.20
71672;DHT22;67659;45.554;11.812;2023-02-28T12:26:31;22.90;18.40
71672;DHT22;67659;45.554;11.812;2023-02-28T12:31:36;25.40;16.80
71672;DHT22;67659;45.554;11.812;2023-02-28T12:34:08;25.00;15.60
71672;DHT22;67659;45.554;11.812;2023-02-28T12:36:36;26.20;15.40
71672;DHT22;67659;45.554;11.812;2023-02-28T12:39:10;27.00;15.40
71672;DHT22;67659;45.554;11.812;2023-02-28T12:41:48;25.60;15.90
71672;DHT22;67659;45.554;11.812;2023-02-28T12:44:42;25.30;16.70
71672;DHT22;67659;45.554;11.812;2023-02-28T12:47:10;25.60;14.50
71672;DHT22;67659;45.554;11.812;2023-02-28T12:49:56;26.00;16.30
71672;DHT22;67659;45.554;11.812;2023-02-28T12:52:47;24.60;15.90
71672;DHT22;67659;45.554;11.812;2023-02-28T12:58:17;21.90;19.00
71672;DHT22;67659;45.554;11.812;2023-02-28T13:09:26;22.10;19.40
71672;DHT22;67659;45.554;11.812;2023-02-28T13:11:55;22.50;18.60
71672;DHT22;67659;45.554;11.812;2023-02-28T13:17:00;22.90;16.30
71672;DHT22;67659;45.554;11.812;2023-02-28T13:19:29;22.50;18.10
71672;DHT22;67659;45.554;11.812;2023-02-28T13:21:57;23.10;17.20
71672;DHT22;67659;45.554;11.812;2023-02-28T13:24:40;23.50;18.00
71672;DHT22;67659;45.554;11.812;2023-02-28T13:29:39;23.80;16.70
71672;DHT22;67659;45.554;11.812;2023-02-28T13:40:33;24.00;17.60
71672;DHT22;67659;45.554;11.812;2023-02-28T13:43:02;24.20;16.40
71672;DHT22;67659;45.554;11.812;2023-02-28T13:45:29;23.20;17.60
71672;DHT22;67659;45.554;11.812;2023-02-28T13:48:18;24.00;16.70
71672;DHT22;67659;45.554;11.812;2023-02-28T13:50:45;22.40;18.40
71672;DHT22;67659;45.554;11.812;2023-02-28T13:55:48;22.90;16.10
71672;DHT22;67659;45.554;11.812;2023-02-28T14:06:57;20.40;20.60
71672;DHT22;67659;45.554;11.812;2023-02-28T14:11:55;21.20;18.70
71672;DHT22;67659;45.554;11.812;2023-02-28T14:17:08;21.90;17.20
71672;DHT22;67659;45.554;11.812;2023-02-28T14:19:40;21.70;17.50
71672;DHT22;67659;45.554;11.812;2023-02-28T14:25:10;21.50;19.60
71672;DHT22;67659;45.554;11.812;2023-02-28T14:30:40;21.00;18.30
71672;DHT22;67659;45.554;11.812;2023-02-28T14:36:12;21.30;19.30
71672;DHT22;67659;45.554;11.812;2023-02-28T14:38:45;21.70;19.60
71672;DHT22;67659;45.554;11.812;2023-02-28T14:41:23;21.90;17.70
71672;DHT22;67659;45.554;11.812;2023-02-28T14:43:54;20.70;20.00
71672;DHT22;67659;45.554;11.812;2023-02-28T14:46:24;20.60;21.70
71672;DHT22;67659;45.554;11.812;2023-02-28T14:48:51;21.40;19.90
71672;DHT22;67659;45.554;11.812;2023-02-28T14:51:22;22.10;19.20
71672;DHT22;67659;45.554;11.812;2023-02-28T14:53:57;22.20;19.30
71672;DHT22;67659;45.554;11.812;2023-02-28T14:56:34;22.40;18.30
71672;DHT22;67659;45.554;11.812;2023-02-28T14:59:00;21.50;19.00
71672;DHT22;67659;45.554;11.812;2023-02-28T15:01:26;21.30;18.40
71672;DHT22;67659;45.554;11.812;2023-02-28T15:04:05;20.60;20.00
71672;DHT22;67659;45.554;11.812;2023-02-28T15:06:33;20.20;22.20
71672;DHT22;67659;45.554;11.812;2023-02-28T15:09:16;20.40;22.70
71672;DHT22;67659;45.554;11.812;2023-02-28T15:11:47;20.60;21.50
71672;DHT22;67659;45.554;11.812;2023-02-28T15:14:18;20.40;22.00
71672;DHT22;67659;45.554;11.812;2023-02-28T15:16:51;20.30;22.00
71672;DHT22;67659;45.554;11.812;2023-02-28T15:19:30;19.00;22.10
71672;DHT22;67659;45.554;11.812;2023-02-28T15:22:12;18.50;24.10
71672;DHT22;67659;45.554;11.812;2023-02-28T15:24:50;18.30;22.70
71672;DHT22;67659;45.554;11.812;2023-02-28T15:27:32;17.50;25.40
71672;DHT22;67659;45.554;11.812;2023-02-28T15:30:07;17.60;25.30
71672;DHT22;67659;45.554;11.812;2023-02-28T15:32:36;17.40;28.30
71672;DHT22;67659;45.554;11.812;2023-02-28T15:38:13;16.60;29.90
71672;DHT22;67659;45.554;11.812;2023-02-28T15:40:53;16.50;30.90
71672;DHT22;67659;45.554;11.812;2023-02-28T15:43:27;16.10;31.60
71672;DHT22;67659;45.554;11.812;2023-02-28T15:46:01;16.20;31.90
71672;DHT22;67659;45.554;11.812;2023-02-28T15:48:44;16.30;31.90
71672;DHT22;67659;45.554;11.812;2023-02-28T15:51:21;16.20;31.70
71672;DHT22;67659;45.554;11.812;2023-02-28T15:53:51;15.80;32.10
71672;DHT22;67659;45.554;11.812;2023-02-28T15:56:26;15.70;32.80
71672;DHT22;67659;45.554;11.812;2023-02-28T15:58:57;15.50;33.50
71672;DHT22;67659;45.554;11.812;2023-02-28T16:01:37;15.30;35.70
71672;DHT22;67659;45.554;11.812;2023-02-28T16:04:16;15.20;36.20
71672;DHT22;67659;45.554;11.812;2023-02-28T16:09:23;14.70;36.70
71672;DHT22;67659;45.554;11.812;2023-02-28T16:11:51;14.60;36.70
71672;DHT22;67659;45.554;11.812;2023-02-28T16:14:24;14.40;37.20
71672;DHT22;67659;45.554;11.812;2023-02-28T16:16:54;14.20;37.80
71672;DHT22;67659;45.554;11.812;2023-02-28T16:19:21;14.00;38.40
71672;DHT22;67659;45.554;11.812;2023-02-28T16:21:48;14.00;38.60
71672;DHT22;67659;45.554;11.812;2023-02-28T16:24:14;13.90;39.20
71672;DHT22;67659;45.554;11.812;2023-02-28T16:26:41;13.80;39.40
71672;DHT22;67659;45.554;11.812;2023-02-28T16:29:10;13.70;39.80
71672;DHT22;67659;45.554;11.812;2023-02-28T16:31:39;13.60;39.70
71672;DHT22;67659;45.554;11.812;2023-02-28T16:34:06;13.40;40.30
71672;DHT22;67659;45.554;11.812;2023-02-28T16:36:32;13.40;40.70
71672;DHT22;67659;45.554;11.812;2023-02-28T16:38:58;13.10;40.70
71672;DHT22;67659;45.554;11.812;2023-02-28T16:41:26;13.00;41.30
71672;DHT22;67659;45.554;11.812;2023-02-28T16:43:54;13.00;41.20
71672;DHT22;67659;45.554;11.812;2023-02-28T16:46:33;12.80;41.50
71672;DHT22;67659;45.554;11.812;2023-02-28T16:48:59;12.70;43.30
71672;DHT22;67659;45.554;11.812;2023-02-28T16:51:25;12.50;43.60
71672;DHT22;67659;45.554;11.812;2023-02-28T16:53:51;12.30;44.00
71672;DHT22;67659;45.554;11.812;2023-02-28T16:56:22;12.40;44.30
71672;DHT22;67659;45.554;11.812;2023-02-28T16:58:49;12.30;43.90
71672;DHT22;67659;45.554;11.812;2023-02-28T17:01:18;12.30;44.00
71672;DHT22;67659;45.554;11.812;2023-02-28T17:03:47;12.20;44.40
71672;DHT22;67659;45.554;11.812;2023-02-28T17:06:23;11.90;44.60
71672;DHT22;67659;45.554;11.812;2023-02-28T17:08:57;11.80;44.70
71672;DHT22;67659;45.554;11.812;2023-02-28T17:11:24;12.00;45.10
71672;DHT22;67659;45.554;11.812;2023-02-28T17:13:50;11.80;45.40
71672;DHT22;67659;45.554;11.812;2023-02-28T17:16:29;11.80;44.90
71672;DHT22;67659;45.554;11.812;2023-02-28T17:18:58;11.60;45.80
71672;DHT22;67659;45.554;11.812;2023-02-28T17:21:25;11.40;45.60
71672;DHT22;67659;45.554;11.812;2023-02-28T17:23:51;11.30;46.30
71672;DHT22;67659;45.554;11.812;2023-02-28T17:26:22;11.20;46.00
71672;DHT22;67659;45.554;11.812;2023-02-28T17:28:54;11.00;46.90
71672;DHT22;67659;45.554;11.812;2023-02-28T17:31:25;11.10;46.50
71672;DHT22;67659;45.554;11.812;2023-02-28T17:33:51;11.10;47.30
71672;DHT22;67659;45.554;11.812;2023-02-28T17:36:24;11.10;46.40
71672;DHT22;67659;45.554;11.812;2023-02-28T17:38:52;11.10;46.90
71672;DHT22;67659;45.554;11.812;2023-02-28T17:41:18;10.90;47.30
71672;DHT22;67659;45.554;11.812;2023-02-28T17:43:44;10.80;47.60
71672;DHT22;67659;45.554;11.812;2023-02-28T17:46:18;10.80;48.30
71672;DHT22;67659;45.554;11.812;2023-02-28T17:48:47;10.70;48.70
71672;DHT22;67659;45.554;11.812;2023-02-28T17:51:14;10.60;49.00
71672;DHT22;67659;45.554;11.812;2023-02-28T17:53:40;10.60;48.70
71672;DHT22;67659;45.554;11.812;2023-02-28T17:56:15;10.70;48.80
71672;DHT22;67659;45.554;11.812;2023-02-28T17:58:41;10.60;48.90
71672;DHT22;67659;45.554;11.812;2023-02-28T18:01:07;10.60;49.40
71672;DHT22;67659;45.554;11.812;2023-02-28T18:03:33;10.50;49.90
71672;DHT22;67659;45.554;11.812;2023-02-28T18:05:59;10.40;51.10
71672;DHT22;67659;45.554;11.812;2023-02-28T18:08:26;10.20;50.80
71672;DHT22;67659;45.554;11.812;2023-02-28T18:10:52;10.10;51.00
71672;DHT22;67659;45.554;11.812;2023-02-28T18:13:18;10.00;51.00
71672;DHT22;67659;45.554;11.812;2023-02-28T18:15:44;9.90;51.60